Главная страница
METAR-TAF:

METAR-TAF

Аэропорты :

Стокгольм-Арланда, Швеция

широта: 59-39N, долгота: 017-57E, высота над уровнем моря: 38 м

Текущие метеонаблюдения

Эта сводка был подготовлена 28 минут назад, в 23:20 UTC
Ветер 2 Узел от юго-юго-восточный
Температура -4°C
Влажность 93%
Давление 1026 hPa
Видимость: 3000 м
клочья тумана

METAR: ESSA 182320Z 15002KT 3000 BCFG NSC M04/M05 Q1026 R01L/29//63 R08/29//73 R01R/29//77 TEMPO 3000 BR

Время: 00:48 (23:48 UTC)

Прогноз

Эта сводка был подготовлена 18 минут назад, в 23:30 UTC
Прогноз действительный с 19-го 00 UTC до 19-го 24 UTC
Ветер 5 Узел от юго-юго-восточный
Видимость: 7000 м
Тонкий туман
Вероятность 40%
С 19-го 00 UTC до 19-го 04 UTC
Видимость: 0800 м
клочья тумана
временами
С 19-го 21 UTC до 19-го 24 UTC
Видимость: 3000 м
Рассеянная облачность на высоте 700 фута
небольшой снег, дождь

TAF: ESSA 182330Z 1900/1924 16005KT 7000 MIFG NSC PROB40 1900/1904 0800 BCFG TEMPO 1921/1924 3000 -SNRA BKN007

Метеонаблюдения и прогнозы для более 4000 аэропортов (сводки METAR и TAF).

Имеющиеся станции представлены на карте желтыми и красными точками.

Чтобы увидеть название станции, наведите на нее мышь.

Затем щелкните, чтобы увидеть метеонаблюдения и метеопрогнозы.

Управление картой: чтобы увеличить масштаб, щелкните зеленые кнопки с черным крестиком; чтобы уменьшить масштаб, щелкните зеленую кнопку с тире; для просмотра соседних карт щелкайте зеленые стрелки.


METAR-TAF: